aviador You're here:

SUMU Decoded Metar

MONTEVIDEO in URUGUAY
Report Time2018-02-22 08:00:00
UTC Time2018-02-22 08:43:45
Flight Rules vfr VFR
Wind200° at 07 kt
W.Decomp.*RWY 19: 6.6 kt HW 2.3 kt RCW
RWY 24: 6.0 kt HW 3.6 kt LCW
W.Rank200° ranks 24
Current wind is below 200° avg. (9.9)
Visibility9999 m
Phenomena:N/A
Clouds:Few 030 Hf
Expected CloudBase > 2,000 ft AGL from Temp-Dew spread
CeilingNone
Temp19°C (ISA +4)
Dew Point14°C (73% RH)
AAT17.8°C
QNH1013 hPa
Density Alt814 ft
Elevation105 ft
Report Wrong Elevation
Raw Report
SUMU 220800Z 20007KT 9999 FEW030 19/14 Q1013 TEMPORA=

Extra information for SUMU:More info

Metar Taf Metar & Taf Last 4 Metars F.Rules Stats Wind Profile Meteogram Temp Stats Airport Information Weather charts Add Link Nearby VenuesMetar ALERT Operation Metar Decoded Social comments